Terminal Aerodrome Forecast
Issued by NWS Shreveport, LA

Home | Current Version | Previous Version | Text Only | Print | Product List | Glossary On
Versions: 1 2 3 4 5 6 7 8 9 10 11 12 13 14 15 16 17 18
203
FTUS44 KSHV 080535
TAFELD
TAF
KELD 080535Z 0806/0906 01006KT 6SM -DZ BR OVC012
     FM080900 02010KT 3SM -DZ BR OVC008
     FM081200 01010G16KT P6SM SCT025 BKN150
     FM081800 01010G16KT P6SM BKN150
     FM090100 36005KT P6SM SCT150=

USA.gov is the U.S. government's official web portal to all federal, state and local government web resources and services.